createdAt,value
2022-12-26T00:04:54.170Z,14.45
2022-12-26T00:09:58.638Z,14.77
2022-12-26T00:15:00.368Z,14.83
2022-12-26T00:20:04.658Z,14.02
2022-12-26T00:25:07.433Z,13.17
2022-12-26T00:30:10.646Z,13.43
2022-12-26T00:35:20.096Z,14.60
2022-12-26T00:40:22.032Z,14.57
2022-12-26T00:45:23.751Z,14.98
2022-12-26T00:50:32.644Z,13.43
2022-12-26T00:55:36.279Z,13.52
2022-12-26T01:00:38.176Z,13.85
2022-12-26T01:05:42.924Z,16.70
2022-12-26T01:10:46.306Z,14.38
2022-12-26T01:15:48.972Z,13.40
2022-12-26T01:20:52.218Z,14.30
2022-12-26T01:26:15.359Z,14.15
2022-12-26T01:31:18.343Z,13.40
2022-12-26T01:36:21.480Z,14.03
2022-12-26T01:41:23.222Z,14.80
2022-12-26T01:46:30.771Z,13.70
2022-12-26T01:51:38.591Z,14.40
2022-12-26T01:56:43.277Z,14.48
2022-12-26T02:01:47.816Z,14.00
2022-12-26T02:06:51.283Z,13.98
2022-12-26T02:12:33.872Z,19.20
2022-12-26T02:17:20.881Z,13.98
2022-12-26T02:22:47.055Z,13.35
2022-12-26T02:28:21.979Z,13.43
2022-12-26T02:33:39.811Z,16.20
2022-12-26T02:38:50.877Z,13.40
2022-12-26T02:44:03.110Z,12.55
2022-12-26T02:49:14.555Z,12.85
2022-12-26T02:54:23.206Z,13.45
2022-12-26T02:59:55.359Z,12.25
2022-12-26T03:04:56.620Z,13.32
2022-12-26T03:10:01.941Z,12.90
2022-12-26T03:20:13.659Z,13.00
2022-12-26T03:25:20.031Z,13.27
2022-12-26T03:30:21.935Z,12.75
2022-12-26T03:35:27.220Z,12.68
2022-12-26T03:45:49.272Z,14.07
2022-12-26T03:50:58.826Z,14.02
2022-12-26T03:56:06.848Z,13.15
2022-12-26T04:01:13.171Z,13.68
2022-12-26T04:06:20.000Z,13.88
2022-12-26T04:11:23.171Z,12.95
2022-12-26T04:16:31.492Z,13.82
2022-12-26T04:21:44.910Z,14.10
2022-12-26T04:26:50.748Z,14.40
2022-12-26T04:31:59.088Z,14.90
2022-12-26T04:37:06.786Z,15.88
2022-12-26T04:42:09.771Z,13.57
2022-12-26T04:47:11.809Z,12.77
2022-12-26T04:52:15.419Z,14.05
2022-12-26T04:57:17.186Z,12.00
2022-12-26T05:02:19.007Z,13.70
2022-12-26T05:07:24.552Z,12.43
2022-12-26T05:12:26.420Z,13.60
2022-12-26T05:17:28.090Z,13.00
2022-12-26T05:22:33.697Z,13.88
2022-12-26T05:27:38.771Z,13.98
2022-12-26T05:37:43.528Z,12.37
2022-12-26T05:42:45.251Z,13.50
2022-12-26T05:47:51.690Z,14.20
2022-12-26T05:52:56.480Z,12.02
2022-12-26T05:58:00.159Z,12.40
2022-12-26T06:03:01.955Z,11.68
2022-12-26T06:08:05.986Z,13.18
2022-12-26T06:13:07.662Z,12.73
2022-12-26T06:18:09.320Z,13.43
2022-12-26T06:23:12.417Z,12.95
2022-12-26T06:28:14.093Z,12.75
2022-12-26T06:33:15.903Z,12.52
2022-12-26T06:38:19.031Z,12.68
2022-12-26T06:43:20.748Z,12.98
2022-12-26T06:48:22.495Z,13.18
2022-12-26T06:53:25.612Z,13.23
2022-12-26T06:58:27.405Z,12.68
2022-12-26T07:03:29.076Z,13.60
2022-12-26T07:08:32.299Z,12.93
2022-12-26T07:13:34.034Z,12.43
2022-12-26T07:18:35.751Z,11.70
2022-12-26T07:23:38.823Z,12.90
2022-12-26T07:28:40.573Z,13.18
2022-12-26T07:33:42.241Z,12.95
2022-12-26T07:38:45.710Z,12.48
2022-12-26T07:43:47.411Z,12.07
2022-12-26T07:48:49.358Z,12.77
2022-12-26T07:53:52.364Z,13.30
2022-12-26T07:58:54.051Z,14.25
2022-12-26T08:03:55.812Z,13.18
2022-12-26T08:08:59.319Z,14.90
2022-12-26T08:14:02.340Z,13.18
2022-12-26T08:19:04.206Z,13.68
2022-12-26T08:24:07.532Z,14.02
2022-12-26T08:29:10.740Z,11.75
2022-12-26T08:34:12.422Z,13.50
2022-12-26T08:39:15.561Z,13.35
2022-12-26T08:44:26.740Z,16.80
2022-12-26T08:49:29.293Z,12.18
2022-12-26T08:54:32.444Z,13.13
2022-12-26T08:59:34.214Z,13.10
2022-12-26T09:04:36.063Z,14.70
2022-12-26T09:09:39.267Z,12.27
2022-12-26T09:14:40.986Z,12.07
2022-12-26T09:19:43.190Z,12.55
2022-12-26T09:24:46.275Z,11.77
2022-12-26T09:29:48.041Z,13.00
2022-12-26T09:34:49.786Z,12.75
2022-12-26T09:39:52.955Z,12.52
2022-12-26T09:45:02.060Z,12.63
2022-12-26T09:50:10.986Z,12.32
2022-12-26T09:55:32.254Z,12.37
2022-12-26T10:00:43.164Z,11.98
2022-12-26T10:06:06.165Z,12.37
2022-12-26T10:11:16.150Z,12.02
2022-12-26T10:16:24.217Z,11.85
2022-12-26T10:21:36.944Z,12.13
2022-12-26T10:26:43.686Z,12.05
2022-12-26T10:31:49.127Z,12.57
2022-12-26T10:36:54.031Z,11.45
2022-12-26T10:42:00.499Z,12.45
2022-12-26T10:47:21.531Z,11.43
2022-12-26T10:52:27.793Z,11.68
2022-12-26T10:57:35.200Z,11.90
2022-12-26T11:02:37.005Z,12.60
2022-12-26T11:07:43.893Z,11.23
2022-12-26T11:12:49.583Z,11.48
2022-12-26T11:17:53.039Z,11.65
2022-12-26T11:22:55.348Z,11.57
2022-12-26T11:28:02.685Z,11.70
2022-12-26T11:33:13.859Z,11.68
2022-12-26T11:38:19.015Z,11.52
2022-12-26T11:43:22.604Z,11.10
2022-12-26T11:48:26.430Z,12.75
2022-12-26T11:53:28.127Z,11.55
2022-12-26T11:58:32.210Z,12.68
2022-12-26T12:03:36.266Z,11.75
2022-12-26T12:08:44.264Z,13.05
2022-12-26T12:14:16.418Z,12.25
2022-12-26T12:19:28.930Z,12.15
2022-12-26T12:24:47.450Z,11.95
2022-12-26T12:30:14.994Z,12.90
2022-12-26T12:35:34.393Z,11.63
2022-12-26T12:40:46.103Z,11.52
2022-12-26T12:45:56.204Z,12.10
2022-12-26T12:51:06.689Z,11.50
2022-12-26T12:56:20.598Z,11.20
2022-12-26T13:01:27.662Z,11.10
2022-12-26T13:06:35.040Z,12.30
2022-12-26T13:11:41.713Z,12.15
2022-12-26T13:16:49.990Z,12.63
2022-12-26T13:21:55.185Z,11.85
2022-12-26T13:32:03.438Z,12.60
2022-12-26T13:37:05.204Z,11.63
2022-12-26T13:42:29.443Z,13.55
2022-12-26T13:47:35.132Z,12.52
2022-12-26T13:52:40.138Z,11.40
2022-12-26T13:57:42.920Z,12.07
2022-12-26T14:03:29.384Z,12.05
2022-12-26T14:08:40.679Z,12.13
2022-12-26T14:13:56.484Z,12.43
2022-12-26T14:19:11.405Z,11.50
2022-12-26T14:24:25.693Z,12.00
2022-12-26T14:29:37.985Z,11.40
2022-12-26T14:34:59.098Z,11.32
2022-12-26T14:40:27.513Z,11.50
2022-12-26T14:45:45.227Z,11.65
2022-12-26T14:50:50.140Z,11.90
2022-12-26T14:55:53.729Z,12.20
2022-12-26T15:00:57.456Z,10.95
2022-12-26T15:06:26.548Z,11.45
2022-12-26T15:12:02.939Z,12.30
2022-12-26T15:17:16.796Z,11.60
2022-12-26T15:22:48.860Z,12.00
2022-12-26T15:28:30.764Z,15.50
2022-12-26T15:33:39.296Z,11.90
2022-12-26T15:38:49.231Z,11.38
2022-12-26T15:44:07.929Z,11.93
2022-12-26T15:49:27.050Z,11.30
2022-12-26T15:54:59.868Z,11.20
2022-12-26T16:00:10.948Z,11.10
2022-12-26T16:05:34.239Z,10.60
2022-12-26T16:10:37.986Z,10.60
2022-12-26T16:15:45.786Z,10.65
2022-12-26T16:20:50.323Z,10.85
2022-12-26T16:25:55.309Z,12.05
2022-12-26T16:30:58.323Z,9.82
2022-12-26T16:36:06.289Z,10.02
2022-12-26T16:41:31.810Z,10.65
2022-12-26T16:58:21.263Z,10.30
2022-12-26T17:03:28.734Z,10.65
2022-12-26T17:08:31.026Z,10.90
2022-12-26T17:13:34.216Z,10.55
2022-12-26T17:18:46.762Z,10.32
2022-12-26T17:24:28.929Z,9.18
2022-12-26T17:29:47.397Z,10.07
2022-12-26T17:34:49.512Z,10.48
2022-12-26T17:39:57.790Z,9.63
2022-12-26T17:45:04.798Z,10.75
2022-12-26T17:50:09.902Z,10.23
2022-12-26T18:00:32.599Z,11.05
2022-12-26T18:06:13.443Z,9.85
2022-12-26T18:11:15.339Z,10.10
2022-12-26T18:16:22.514Z,9.73
2022-12-26T18:21:24.248Z,10.20
2022-12-26T18:26:28.692Z,9.38
2022-12-26T18:31:32.433Z,10.15
2022-12-26T18:36:46.648Z,10.35
2022-12-26T18:42:00.339Z,8.52
2022-12-26T18:47:03.577Z,11.27
2022-12-26T18:52:05.330Z,8.88
2022-12-26T18:57:11.437Z,8.57
2022-12-26T19:02:54.228Z,8.85
2022-12-26T19:14:47.329Z,8.32
2022-12-26T19:26:24.031Z,10.00
2022-12-26T19:32:07.853Z,9.88
2022-12-26T19:42:45.337Z,10.35
2022-12-26T19:47:54.123Z,9.85
2022-12-26T19:52:56.100Z,9.60
2022-12-26T19:57:58.321Z,9.63
2022-12-26T20:03:01.719Z,8.57
2022-12-26T20:08:15.993Z,9.30
2022-12-26T20:13:27.068Z,9.60
2022-12-26T20:24:16.670Z,11.15
2022-12-26T20:34:52.715Z,11.15
2022-12-26T20:39:58.742Z,11.70
2022-12-26T20:45:00.814Z,13.18
2022-12-26T20:50:04.682Z,11.50
2022-12-26T20:55:07.362Z,12.07
2022-12-26T21:00:10.747Z,11.73
2022-12-26T21:05:15.802Z,17.52
2022-12-26T21:10:24.116Z,12.52
2022-12-26T21:15:26.543Z,12.20
2022-12-26T21:20:39.801Z,13.40
2022-12-26T21:26:03.882Z,13.07
2022-12-26T21:31:07.139Z,11.77
2022-12-26T21:42:12.604Z,12.65
2022-12-26T21:59:00.171Z,13.02
2022-12-26T22:04:21.159Z,14.25
2022-12-26T22:09:25.107Z,13.62
2022-12-26T22:14:28.682Z,13.65
2022-12-26T22:19:30.684Z,13.07
2022-12-26T22:24:37.884Z,13.05
2022-12-26T22:29:44.624Z,13.48
2022-12-26T22:35:09.799Z,13.48
2022-12-26T22:40:15.257Z,12.60
2022-12-26T22:45:18.589Z,13.95
2022-12-26T22:50:31.787Z,13.60
2022-12-26T22:56:45.828Z,14.05
2022-12-26T23:01:35.063Z,13.62
2022-12-26T23:06:40.494Z,13.23
2022-12-26T23:12:02.430Z,14.65
2022-12-26T23:17:11.127Z,12.90
2022-12-26T23:22:13.649Z,13.85
2022-12-26T23:27:15.544Z,13.55
2022-12-26T23:32:18.878Z,14.87
2022-12-26T23:37:24.196Z,12.93
2022-12-26T23:42:26.432Z,13.85
2022-12-26T23:47:36.439Z,14.55
2022-12-26T23:52:38.265Z,15.05
2022-12-26T23:57:43.269Z,14.75
